createdAt,value
2022-10-10T00:01:32.249Z,10.20
2022-10-10T00:04:01.550Z,10.20
2022-10-10T00:06:32.991Z,10.30
2022-10-10T00:09:03.603Z,10.30
2022-10-10T00:11:31.869Z,10.30
2022-10-10T00:14:01.574Z,10.30
2022-10-10T00:16:29.799Z,10.30
2022-10-10T00:18:58.075Z,10.30
2022-10-10T00:21:27.080Z,10.30
2022-10-10T00:23:55.777Z,10.30
2022-10-10T00:26:24.025Z,10.30
2022-10-10T00:28:52.193Z,10.30
2022-10-10T00:31:21.866Z,10.30
2022-10-10T00:33:50.068Z,10.30
2022-10-10T00:36:20.680Z,10.30
2022-10-10T00:38:50.304Z,10.30
2022-10-10T00:41:18.764Z,10.30
2022-10-10T00:44:03.046Z,10.30
2022-10-10T00:46:32.801Z,10.30
2022-10-10T00:49:01.421Z,10.30
2022-10-10T00:51:29.692Z,10.30
2022-10-10T00:54:01.205Z,10.30
2022-10-10T00:56:32.992Z,10.30
2022-10-10T00:59:06.097Z,10.30
2022-10-10T01:01:35.723Z,10.30
2022-10-10T01:04:04.734Z,10.30
2022-10-10T01:06:34.038Z,10.20
2022-10-10T01:09:03.054Z,10.20
2022-10-10T01:11:46.692Z,10.20
2022-10-10T01:14:26.285Z,10.30
2022-10-10T01:17:03.105Z,10.30
2022-10-10T01:20:10.424Z,10.30
2022-10-10T01:22:50.828Z,10.40
2022-10-10T01:25:28.549Z,10.40
2022-10-10T01:28:04.434Z,10.40
2022-10-10T01:30:36.558Z,10.40
2022-10-10T01:33:09.706Z,10.40
2022-10-10T01:35:50.973Z,10.50
2022-10-10T01:38:30.892Z,10.50
2022-10-10T01:41:05.944Z,10.50
2022-10-10T01:43:34.576Z,10.60
2022-10-10T01:46:12.844Z,10.60
2022-10-10T01:48:42.229Z,10.60
2022-10-10T01:51:34.370Z,10.70
2022-10-10T01:54:26.005Z,10.80
2022-10-10T01:57:05.223Z,10.80
2022-10-10T01:59:45.341Z,10.80
2022-10-10T02:02:21.694Z,10.80
2022-10-10T02:04:54.053Z,10.80
2022-10-10T02:07:28.380Z,10.80
2022-10-10T02:09:58.531Z,10.80
2022-10-10T02:12:29.453Z,11.00
2022-10-10T02:15:05.585Z,10.90
2022-10-10T02:17:38.928Z,10.90
2022-10-10T02:20:09.040Z,10.90
2022-10-10T02:22:39.404Z,10.90
2022-10-10T02:25:08.694Z,10.90
2022-10-10T02:27:40.505Z,10.90
2022-10-10T02:30:10.457Z,10.90
2022-10-10T02:32:43.966Z,10.90
2022-10-10T02:35:16.485Z,10.90
2022-10-10T02:37:47.251Z,10.90
2022-10-10T02:40:18.701Z,10.90
2022-10-10T02:42:48.685Z,11.00
2022-10-10T02:45:17.703Z,11.00
2022-10-10T02:47:47.842Z,11.00
2022-10-10T02:50:16.180Z,11.00
2022-10-10T02:52:44.364Z,11.00
2022-10-10T02:55:12.578Z,11.00
2022-10-10T02:57:41.058Z,11.00
2022-10-10T03:00:10.296Z,11.00
2022-10-10T03:02:38.809Z,11.00
2022-10-10T03:05:10.126Z,11.00
2022-10-10T03:07:38.764Z,11.00
2022-10-10T03:10:08.353Z,11.00
2022-10-10T03:12:36.884Z,11.00
2022-10-10T03:15:10.646Z,11.00
2022-10-10T03:17:40.087Z,11.00
2022-10-10T03:20:11.692Z,11.00
2022-10-10T03:22:39.737Z,11.00
2022-10-10T03:25:08.548Z,11.10
2022-10-10T03:27:36.831Z,11.10
2022-10-10T03:30:06.038Z,11.10
2022-10-10T03:32:34.227Z,11.10
2022-10-10T03:35:02.456Z,11.10
2022-10-10T03:37:33.189Z,11.10
2022-10-10T03:40:01.418Z,11.10
2022-10-10T03:42:29.731Z,11.10
2022-10-10T03:44:57.957Z,11.10
2022-10-10T03:47:26.163Z,11.20
2022-10-10T03:49:54.460Z,11.20
2022-10-10T03:52:23.075Z,11.20
2022-10-10T03:54:52.681Z,11.10
2022-10-10T03:57:20.901Z,11.10
2022-10-10T03:59:49.091Z,11.20
2022-10-10T04:02:17.337Z,11.20
2022-10-10T04:04:45.580Z,11.20
2022-10-10T04:07:13.822Z,11.20
2022-10-10T04:09:42.001Z,11.20
2022-10-10T04:12:11.619Z,11.20
2022-10-10T04:14:39.939Z,11.10
2022-10-10T04:17:08.236Z,11.10
2022-10-10T04:19:36.514Z,11.10
2022-10-10T04:22:08.964Z,11.10
2022-10-10T04:24:39.221Z,11.10
2022-10-10T04:27:07.456Z,11.20
2022-10-10T04:29:37.105Z,11.20
2022-10-10T04:32:05.344Z,11.10
2022-10-10T04:34:33.582Z,11.10
2022-10-10T04:37:01.914Z,11.00
2022-10-10T04:39:30.146Z,11.00
2022-10-10T04:41:58.542Z,11.10
2022-10-10T04:44:26.777Z,11.10
2022-10-10T04:46:56.435Z,11.10
2022-10-10T04:49:24.699Z,11.10
2022-10-10T04:51:52.930Z,11.10
2022-10-10T04:54:21.194Z,11.00
2022-10-10T04:56:49.567Z,11.00
2022-10-10T04:59:17.790Z,11.00
2022-10-10T05:01:46.041Z,11.00
2022-10-10T05:04:15.671Z,11.00
2022-10-10T05:06:44.018Z,11.00
2022-10-10T05:09:12.295Z,11.00
2022-10-10T05:11:41.561Z,11.00
2022-10-10T05:14:11.884Z,11.00
2022-10-10T05:16:40.128Z,11.00
2022-10-10T05:19:09.051Z,11.00
2022-10-10T05:21:38.673Z,11.00
2022-10-10T05:24:07.316Z,11.00
2022-10-10T05:26:37.618Z,11.00
2022-10-10T05:29:09.226Z,11.00
2022-10-10T05:31:37.432Z,11.00
2022-10-10T05:34:05.693Z,11.10
2022-10-10T05:36:35.291Z,11.10
2022-10-10T05:39:05.964Z,11.10
2022-10-10T05:41:34.224Z,11.10
2022-10-10T05:44:02.544Z,11.20
2022-10-10T05:46:30.790Z,11.30
2022-10-10T05:48:59.063Z,11.30
2022-10-10T05:51:27.423Z,11.30
2022-10-10T05:53:56.593Z,11.40
2022-10-10T05:56:26.337Z,11.40
2022-10-10T05:58:55.018Z,11.50
2022-10-10T06:01:23.230Z,11.40
2022-10-10T06:03:55.854Z,11.40
2022-10-10T06:06:24.689Z,11.50
2022-10-10T06:08:53.875Z,11.40
2022-10-10T06:11:23.599Z,11.40
2022-10-10T06:13:55.281Z,11.50
2022-10-10T06:16:23.558Z,11.40
2022-10-10T06:18:51.791Z,11.30
2022-10-10T06:21:20.613Z,11.30
2022-10-10T06:23:48.848Z,11.30
2022-10-10T06:26:17.170Z,11.30
2022-10-10T06:28:45.737Z,11.40
2022-10-10T06:31:16.698Z,11.40
2022-10-10T06:33:46.196Z,11.50
2022-10-10T06:36:15.360Z,11.50
2022-10-10T06:38:45.452Z,11.60
2022-10-10T06:41:14.099Z,11.60
2022-10-10T06:43:42.593Z,11.70
2022-10-10T06:46:11.822Z,11.80
2022-10-10T06:48:41.465Z,11.90
2022-10-10T06:51:12.759Z,11.90
2022-10-10T06:53:41.007Z,12.00
2022-10-10T06:56:10.636Z,12.00
2022-10-10T06:58:38.986Z,12.10
2022-10-10T07:01:07.485Z,12.10
2022-10-10T07:03:35.691Z,12.10
2022-10-10T07:06:05.624Z,12.20
2022-10-10T07:08:34.681Z,12.30
2022-10-10T07:11:02.882Z,12.30
2022-10-10T07:13:31.159Z,12.40
2022-10-10T07:15:59.448Z,12.40
2022-10-10T07:18:28.053Z,12.50
2022-10-10T07:20:58.078Z,12.50
2022-10-10T07:23:28.644Z,12.50
2022-10-10T07:26:01.105Z,12.50
2022-10-10T07:28:29.831Z,12.60
2022-10-10T07:31:02.238Z,12.60
2022-10-10T07:33:33.829Z,12.60
2022-10-10T07:36:01.781Z,12.70
2022-10-10T07:38:31.362Z,12.60
2022-10-10T07:40:59.785Z,12.60
2022-10-10T07:43:28.020Z,12.60
2022-10-10T07:45:56.326Z,12.60
2022-10-10T07:48:24.602Z,12.70
2022-10-10T07:50:52.805Z,12.70
2022-10-10T07:53:21.056Z,12.80
2022-10-10T07:55:50.779Z,12.90
2022-10-10T07:58:19.066Z,13.10
2022-10-10T08:00:47.357Z,13.20
2022-10-10T08:03:15.641Z,13.20
2022-10-10T08:05:47.050Z,13.30
2022-10-10T08:08:15.825Z,13.40
2022-10-10T08:10:46.502Z,13.40
2022-10-10T08:13:16.150Z,13.30
2022-10-10T08:15:44.428Z,13.50
2022-10-10T08:18:12.656Z,13.40
2022-10-10T08:20:40.841Z,13.50
2022-10-10T08:23:09.054Z,13.60
2022-10-10T08:25:37.256Z,13.80
2022-10-10T08:28:05.860Z,13.90
2022-10-10T08:30:35.511Z,14.00
2022-10-10T08:33:03.688Z,14.10
2022-10-10T08:35:31.918Z,14.30
2022-10-10T08:38:00.130Z,14.50
2022-10-10T08:40:28.867Z,14.70
2022-10-10T08:43:03.111Z,14.70
2022-10-10T08:45:34.407Z,14.80
2022-10-10T08:48:08.003Z,15.10
2022-10-10T08:50:41.527Z,15.30
2022-10-10T08:53:15.780Z,15.50
2022-10-10T08:55:45.607Z,15.80
2022-10-10T08:58:19.876Z,16.20
2022-10-10T09:00:50.365Z,16.60
2022-10-10T09:03:30.523Z,16.90
2022-10-10T09:06:11.737Z,17.40
2022-10-10T09:08:51.233Z,17.80
2022-10-10T09:11:33.774Z,18.40
2022-10-10T09:14:15.487Z,18.90
2022-10-10T09:16:48.341Z,19.30
2022-10-10T09:19:29.880Z,19.30
2022-10-10T09:22:01.815Z,19.30
2022-10-10T09:24:35.864Z,19.20
2022-10-10T09:27:11.302Z,19.30
2022-10-10T09:29:47.374Z,19.30
2022-10-10T09:32:19.482Z,19.30
2022-10-10T09:34:51.902Z,19.60
2022-10-10T09:37:42.632Z,20.00
2022-10-10T09:40:21.415Z,20.00
2022-10-10T09:42:49.981Z,20.20
2022-10-10T09:45:20.425Z,20.00
2022-10-10T09:47:52.663Z,20.20
2022-10-10T09:50:22.940Z,20.50
2022-10-10T09:52:52.355Z,20.80
2022-10-10T09:55:26.527Z,20.90
2022-10-10T09:57:56.761Z,21.10
2022-10-10T10:00:29.891Z,20.90
2022-10-10T10:03:11.267Z,20.90
2022-10-10T10:05:41.885Z,20.90
2022-10-10T10:08:21.572Z,20.50
2022-10-10T10:10:49.762Z,20.70
2022-10-10T10:13:26.016Z,20.80
2022-10-10T10:16:06.307Z,21.10
2022-10-10T10:18:41.534Z,21.30
2022-10-10T10:21:15.724Z,21.40
2022-10-10T10:23:45.233Z,21.60
2022-10-10T10:26:22.633Z,21.90
2022-10-10T10:28:52.588Z,22.30
2022-10-10T10:31:32.595Z,22.40
2022-10-10T10:34:17.644Z,22.50
2022-10-10T10:36:56.516Z,22.90
2022-10-10T10:39:37.881Z,23.40
2022-10-10T10:42:15.855Z,23.80
2022-10-10T10:44:51.818Z,24.20
2022-10-10T10:47:42.534Z,24.60
2022-10-10T10:50:33.065Z,24.90
2022-10-10T10:53:12.001Z,25.00
2022-10-10T10:55:46.113Z,25.50
2022-10-10T11:02:02.457Z,26.00
2022-10-10T11:05:19.929Z,26.20
2022-10-10T11:07:58.559Z,26.50
2022-10-10T11:10:36.004Z,26.80
2022-10-10T11:13:11.809Z,27.10
2022-10-10T11:18:38.091Z,27.40
2022-10-10T11:21:10.193Z,28.00
2022-10-10T11:23:43.353Z,28.70
2022-10-10T11:26:21.698Z,29.30
2022-10-10T11:28:55.130Z,29.90
2022-10-10T11:31:26.882Z,30.00
2022-10-10T11:34:00.270Z,30.20
2022-10-10T11:36:31.097Z,30.20
2022-10-10T11:39:03.742Z,30.60
2022-10-10T11:41:39.080Z,31.10
2022-10-10T11:44:12.364Z,31.60
2022-10-10T11:46:44.481Z,31.80
2022-10-10T11:49:19.343Z,31.80
2022-10-10T11:52:31.975Z,31.30
2022-10-10T11:55:00.413Z,31.00
2022-10-10T11:57:34.979Z,30.80
2022-10-10T12:00:06.374Z,30.60
2022-10-10T12:02:36.924Z,30.60
2022-10-10T12:05:06.664Z,30.90
2022-10-10T12:07:41.632Z,30.90
2022-10-10T12:10:16.801Z,30.70
2022-10-10T12:12:49.665Z,30.70
2022-10-10T12:15:27.003Z,30.80
2022-10-10T12:17:55.556Z,31.30
2022-10-10T12:20:36.319Z,32.00
2022-10-10T12:23:23.287Z,32.30
2022-10-10T12:25:51.793Z,32.30
2022-10-10T12:28:30.682Z,32.20
2022-10-10T12:31:29.303Z,31.90
2022-10-10T12:34:14.200Z,32.00
2022-10-10T12:37:12.400Z,31.90
2022-10-10T12:40:01.565Z,31.50
2022-10-10T12:42:32.360Z,31.20
2022-10-10T12:45:02.385Z,31.20
2022-10-10T12:48:03.270Z,31.20
2022-10-10T12:50:28.008Z,31.00
2022-10-10T12:52:58.700Z,30.40
2022-10-10T12:55:29.838Z,30.00
2022-10-10T12:58:00.465Z,29.70
2022-10-10T13:00:38.667Z,29.50
2022-10-10T13:03:13.359Z,29.40
2022-10-10T13:05:42.491Z,29.00
2022-10-10T13:08:16.146Z,29.00
2022-10-10T13:10:44.696Z,28.80
2022-10-10T13:13:19.821Z,28.70
2022-10-10T13:15:55.803Z,28.40
2022-10-10T13:18:35.333Z,28.40
2022-10-10T13:21:05.775Z,28.40
2022-10-10T13:23:36.634Z,28.20
2022-10-10T13:26:06.593Z,28.00
2022-10-10T13:28:34.921Z,27.90
2022-10-10T13:31:05.600Z,27.70
2022-10-10T13:33:35.237Z,27.40
2022-10-10T13:36:09.571Z,27.10
2022-10-10T13:38:37.956Z,26.80
2022-10-10T13:41:06.699Z,26.40
2022-10-10T13:43:35.397Z,26.10
2022-10-10T13:46:05.622Z,25.80
2022-10-10T13:48:41.098Z,25.40
2022-10-10T13:51:11.309Z,25.10
2022-10-10T13:53:50.729Z,24.80
2022-10-10T13:56:24.949Z,24.60
2022-10-10T13:58:54.803Z,24.20
2022-10-10T14:01:31.729Z,23.90
2022-10-10T14:04:04.122Z,23.70
2022-10-10T14:06:33.130Z,23.40
2022-10-10T14:09:12.948Z,23.20
2022-10-10T14:11:44.293Z,23.00
2022-10-10T14:14:17.878Z,22.80
2022-10-10T14:16:57.720Z,22.60
2022-10-10T14:19:27.135Z,22.40
2022-10-10T14:21:55.332Z,22.40
2022-10-10T14:24:23.892Z,22.30
2022-10-10T14:26:52.432Z,22.10
2022-10-10T14:29:21.527Z,22.00
2022-10-10T14:31:51.307Z,21.90
2022-10-10T14:34:19.526Z,21.90
2022-10-10T14:36:49.312Z,22.00
2022-10-10T14:39:19.012Z,22.00
2022-10-10T14:41:47.561Z,21.90
2022-10-10T14:44:15.784Z,21.80
2022-10-10T14:46:44.384Z,21.80
2022-10-10T14:49:19.838Z,21.70
2022-10-10T14:51:48.558Z,21.50
2022-10-10T14:54:16.848Z,21.30
2022-10-10T14:57:09.413Z,21.10
2022-10-10T14:59:47.600Z,20.80
2022-10-10T15:02:19.183Z,20.60
2022-10-10T15:04:49.429Z,20.40
2022-10-10T15:07:17.933Z,20.30
2022-10-10T15:12:36.251Z,19.90
2022-10-10T15:15:05.126Z,19.90
2022-10-10T15:17:34.518Z,19.70
2022-10-10T15:20:05.557Z,19.50
2022-10-10T15:22:34.129Z,19.40
2022-10-10T15:25:02.465Z,19.30
2022-10-10T15:27:32.690Z,19.30
2022-10-10T15:30:01.382Z,19.30
2022-10-10T15:32:29.667Z,19.30
2022-10-10T15:34:57.899Z,19.20
2022-10-10T15:37:28.246Z,19.10
2022-10-10T15:39:56.788Z,19.10
2022-10-10T15:42:25.128Z,19.00
2022-10-10T15:44:53.365Z,18.90
2022-10-10T15:47:22.377Z,19.00
2022-10-10T15:49:50.992Z,19.00
2022-10-10T15:52:19.887Z,19.20
2022-10-10T15:54:51.141Z,19.40
2022-10-10T15:57:20.205Z,19.60
2022-10-10T15:59:48.599Z,19.80
2022-10-10T16:02:18.009Z,19.90
2022-10-10T16:04:46.777Z,20.10
2022-10-10T16:07:34.583Z,20.20
2022-10-10T16:10:05.804Z,20.30
2022-10-10T16:12:34.007Z,20.40
2022-10-10T16:15:06.789Z,20.40
2022-10-10T16:17:35.284Z,20.40
2022-10-10T16:20:03.825Z,20.40
2022-10-10T16:22:32.146Z,20.20
2022-10-10T16:27:50.195Z,19.80
2022-10-10T16:30:19.970Z,19.60
2022-10-10T16:32:48.382Z,19.40
2022-10-10T16:35:16.694Z,19.10
2022-10-10T16:37:44.922Z,18.90
2022-10-10T16:40:13.835Z,18.70
2022-10-10T16:42:42.088Z,18.60
2022-10-10T16:45:12.838Z,18.40
2022-10-10T16:47:41.126Z,18.20
2022-10-10T16:50:10.192Z,18.00
2022-10-10T16:52:38.617Z,17.90
2022-10-10T16:55:08.398Z,17.70
2022-10-10T16:57:37.397Z,17.60
2022-10-10T17:00:07.709Z,17.40
2022-10-10T17:02:38.951Z,17.30
2022-10-10T17:05:08.048Z,17.00
2022-10-10T17:07:36.590Z,16.90
2022-10-10T17:10:05.416Z,16.70
2022-10-10T17:12:33.648Z,16.60
2022-10-10T17:15:02.190Z,16.60
2022-10-10T17:17:30.440Z,16.50
2022-10-10T17:20:02.161Z,16.40
2022-10-10T17:22:30.976Z,16.30
2022-10-10T17:24:59.172Z,16.20
2022-10-10T17:27:27.590Z,16.10
2022-10-10T17:29:56.265Z,16.00
2022-10-10T17:32:25.228Z,15.90
2022-10-10T17:34:55.916Z,15.80
2022-10-10T17:37:25.750Z,15.80
2022-10-10T17:39:54.109Z,15.70
2022-10-10T17:42:22.497Z,15.70
2022-10-10T17:44:56.117Z,15.60
2022-10-10T17:47:24.702Z,15.50
2022-10-10T17:49:53.379Z,15.50
2022-10-10T17:52:21.730Z,15.40
2022-10-10T17:54:51.482Z,15.40
2022-10-10T17:57:20.190Z,15.20
2022-10-10T17:59:48.415Z,15.20
2022-10-10T18:02:18.701Z,15.10
2022-10-10T18:04:47.327Z,15.00
2022-10-10T18:07:16.273Z,15.00
2022-10-10T18:09:45.829Z,15.00
2022-10-10T18:12:15.903Z,14.90
2022-10-10T18:14:44.637Z,14.90
2022-10-10T18:17:14.002Z,14.90
2022-10-10T18:19:42.262Z,14.80
2022-10-10T18:22:10.833Z,14.80
2022-10-10T18:24:39.172Z,14.70
2022-10-10T18:27:07.782Z,14.70
2022-10-10T18:29:38.261Z,14.70
2022-10-10T18:32:07.026Z,14.60
2022-10-10T18:34:35.225Z,14.60
2022-10-10T18:37:04.169Z,14.60
2022-10-10T18:39:33.912Z,14.60
2022-10-10T18:42:02.204Z,14.60
2022-10-10T18:44:30.621Z,14.60
2022-10-10T18:47:00.325Z,14.50
2022-10-10T18:49:28.785Z,14.50
2022-10-10T18:51:57.109Z,14.50
2022-10-10T18:54:27.284Z,14.50
2022-10-10T18:56:55.500Z,14.50
2022-10-10T18:59:23.768Z,14.40
2022-10-10T19:01:52.652Z,14.40
2022-10-10T19:04:23.133Z,14.40
2022-10-10T19:06:57.137Z,14.40
2022-10-10T19:09:26.874Z,14.40
2022-10-10T19:11:55.577Z,14.40
2022-10-10T19:14:23.759Z,14.40
2022-10-10T19:16:51.972Z,14.40
2022-10-10T19:19:21.797Z,14.30
2022-10-10T19:21:51.373Z,14.30
2022-10-10T19:24:22.454Z,14.30
2022-10-10T19:26:53.545Z,14.40
2022-10-10T19:29:22.219Z,14.40
2022-10-10T19:31:50.674Z,14.50
2022-10-10T19:34:19.097Z,14.60
2022-10-10T19:36:48.743Z,14.60
2022-10-10T19:39:16.983Z,14.70
2022-10-10T19:41:45.246Z,14.60
2022-10-10T19:44:13.454Z,14.70
2022-10-10T19:46:41.687Z,14.70
2022-10-10T19:49:12.230Z,14.80
2022-10-10T19:51:40.623Z,14.80
2022-10-10T19:54:10.238Z,14.80
2022-10-10T19:56:38.586Z,14.80
2022-10-10T19:59:07.002Z,14.80
2022-10-10T20:01:35.503Z,14.80
2022-10-10T20:04:03.839Z,14.80
2022-10-10T20:06:32.148Z,14.70
2022-10-10T20:09:00.477Z,14.70
2022-10-10T20:11:31.310Z,14.60
2022-10-10T20:13:59.531Z,14.60
2022-10-10T20:16:28.189Z,14.50
2022-10-10T20:18:58.536Z,14.50
2022-10-10T20:21:31.590Z,14.40
2022-10-10T20:24:00.728Z,14.40
2022-10-10T20:26:30.650Z,14.50
2022-10-10T20:28:59.512Z,14.50
2022-10-10T20:31:29.503Z,14.50
2022-10-10T20:34:00.881Z,14.40
2022-10-10T20:36:30.940Z,14.40
2022-10-10T20:39:00.639Z,14.30
2022-10-10T20:41:32.545Z,14.40
2022-10-10T20:44:02.554Z,14.40
2022-10-10T20:46:33.619Z,14.40
2022-10-10T20:49:06.484Z,14.30
2022-10-10T20:51:35.660Z,14.30
2022-10-10T20:54:06.238Z,14.30
2022-10-10T20:56:36.899Z,14.40
2022-10-10T20:59:05.381Z,14.30
2022-10-10T21:01:33.631Z,14.40
2022-10-10T21:04:02.209Z,14.30
2022-10-10T21:06:32.979Z,14.40
2022-10-10T21:09:02.448Z,14.30
2022-10-10T21:11:30.934Z,14.20
2022-10-10T21:14:01.578Z,14.20
2022-10-10T21:16:32.829Z,14.10
2022-10-10T21:19:01.696Z,14.10
2022-10-10T21:21:32.632Z,14.20
2022-10-10T21:24:01.197Z,14.20
2022-10-10T21:26:30.532Z,14.20
2022-10-10T21:29:02.027Z,14.20
2022-10-10T21:31:32.797Z,14.10
2022-10-10T21:34:02.588Z,14.20
2022-10-10T21:36:31.840Z,14.20
2022-10-10T21:39:00.602Z,14.20
2022-10-10T21:41:29.161Z,14.10
2022-10-10T21:43:59.188Z,14.10
2022-10-10T21:46:35.817Z,14.10
2022-10-10T21:49:06.930Z,14.00
2022-10-10T21:51:38.625Z,14.00
2022-10-10T21:54:07.897Z,13.90
2022-10-10T21:56:36.540Z,13.80
2022-10-10T21:59:05.209Z,13.80
2022-10-10T22:01:37.381Z,13.80
2022-10-10T22:04:06.186Z,13.70
2022-10-10T22:06:34.503Z,13.70
2022-10-10T22:09:04.279Z,13.60
2022-10-10T22:11:34.390Z,13.60
2022-10-10T22:14:03.912Z,13.50
2022-10-10T22:16:34.711Z,13.50
2022-10-10T22:19:04.078Z,13.40
2022-10-10T22:21:34.739Z,13.30
2022-10-10T22:24:06.303Z,13.20
2022-10-10T22:26:35.242Z,13.20
2022-10-10T22:29:04.601Z,13.20
2022-10-10T22:31:37.566Z,13.20
2022-10-10T22:34:06.826Z,13.20
2022-10-10T22:36:35.647Z,13.20
2022-10-10T22:39:04.670Z,13.20
2022-10-10T22:41:32.872Z,13.20
2022-10-10T22:44:01.352Z,13.20
2022-10-10T22:46:29.725Z,13.20
2022-10-10T22:48:59.407Z,13.20
2022-10-10T22:51:28.081Z,13.20
2022-10-10T22:53:56.274Z,13.20
2022-10-10T22:56:24.590Z,13.20
2022-10-10T22:58:53.477Z,13.20
2022-10-10T23:01:25.261Z,13.20
2022-10-10T23:03:56.167Z,13.10
2022-10-10T23:06:26.207Z,13.10
2022-10-10T23:08:54.890Z,13.10
2022-10-10T23:11:23.119Z,13.10
2022-10-10T23:13:51.350Z,13.10
2022-10-10T23:16:19.548Z,13.10
2022-10-10T23:18:47.811Z,13.10
2022-10-10T23:21:16.655Z,13.10
2022-10-10T23:23:46.250Z,13.10
2022-10-10T23:26:15.076Z,13.10
2022-10-10T23:28:44.870Z,13.10
2022-10-10T23:31:14.799Z,13.20
2022-10-10T23:33:44.796Z,13.20
2022-10-10T23:36:14.743Z,13.20
2022-10-10T23:38:43.165Z,13.20
2022-10-10T23:41:13.506Z,13.20
2022-10-10T23:43:42.360Z,13.20
2022-10-10T23:46:10.611Z,13.20
2022-10-10T23:48:38.992Z,13.20
2022-10-10T23:51:08.492Z,13.20
2022-10-10T23:53:37.442Z,13.20
2022-10-10T23:56:06.585Z,13.30
2022-10-10T23:58:36.757Z,13.30
